Grants, NM

12:39 AM MDT on April 02, 2015 (GMT -0600)
Grants-Milan Municipal | | Change Station
CLOSE
Current Station
Airport
Location: Grants-Milan,
Elevation: 6519 ft
Nearby Weather Stations
Active Advisory: Fire Weather Warning

Elev 6519 ft 35.17 °N, 107.90 °W | Updated 24 minutes ago

Clear
Clear
51 °F
Feels Like 51 °F
N
9
Wind Variable Wind from WSW

Today
High -- | Low -- °F
--% Chance of Precip.
Yesterday
High -- | Low -- °F
Precip. -- in
6:56 AM 7:33 PM
Waxing Gibbous, 96% visible
Pressure 30.01 in
Visibility 10.0 miles
Clouds Clear
Dew Point 20 °F
Humidity 29%
Rainfall 0.00 in
Snow Depth Not available.
UV 0 out of 12
Pollen 11.50 out of 12
Air Quality Not available.
Flu Activity Not available.
METAR KGNT 020615Z AUTO 25008KT 10SM CLR 11/M07 A3001 RMK AO2 T01061067

More Conditions Fewer Conditions

Pressure 30.01 in
Visibility 10.0 miles
Clouds Clear
Dew Point 20 °F
Humidity 29%
Rainfall 0.00 in
Snow Depth Not available.
UV 0 out of 12
Pollen 11.50 out of 12
Air Quality Not available.
Flu Activity Not available.
METAR KGNT 020615Z AUTO 25008KT 10SM CLR 11/M07 A3001 RMK AO2 T01061067

More Conditions Fewer Conditions

10-Day Weather Forecast

Almanac

Astronomy

Apr. 02, 2015 Rise Set
Actual Time
Civil Twilight
Nautical Twilight
Astronomical Twilight
Moon
Length of Visible Light
Length of Day
Tomorrow will be .
, % of the Moon is Illuminated

Today's Extremes

State Highs State Lows

Community

WunderPhotos

Upload Photos

1,810,204 photos uploaded!

WunderBlogs® & News

Nearby

Air Quality

  Air Quality AQ Index Pollutant
Not available.

Snow Depth

Station Depth Elevation

Earthquake Activity

City Distance Mag. Time & Date
Minimum magnitude displayed is 2.5.

Coastal Water Temperatures

Place Temperature

Stations

Nearby Weather Stations

Station Location Temp. Windchill Dew Point Humidity Wind Precip. Elev Updated Type
                   
Fire Weather Warning
Statement as of 6:58 PM MDT on April 01, 2015

... Red flag warning remains in effect from 11 am to 9 PM MDT
Thursday...
... Red flag warning will expire at 7 PM MDT this evening...

A red flag warning remains in effect from 11 am to 9 PM MDT
Thursday.

* Area and timing... this includes the northeast and east Central
Plains as well as the northwest and northeast Highlands and
Sandia... Manzano and Gallinas Mountains below significant snow
pack late Thursday morning through early evening.

* 20 foot winds... west 20 to 35 mph with gusts to 45 mph.

* Relative humidity... ranging from 6 to 15 percent.

* Impacts... any fires that develop will likely spread rapidly.
Outdoor burning is not recommended.

Precautionary/preparedness actions...

Please advise the appropriate officials or fire crews in the
field of this red flag warning.